sensor_id;sensor_type;location;lat;lon;timestamp;pressure;altitude;pressure_sealevel;temperature;humidity
19210;BME280;9738;51.654;14.238;2022-08-01T00:00:35;100198.03;;;21.98;59.88
19210;BME280;9738;51.654;14.238;2022-08-01T00:03:01;100191.31;;;22.00;60.12
19210;BME280;9738;51.654;14.238;2022-08-01T00:05:28;100192.50;;;22.04;60.32
19210;BME280;9738;51.654;14.238;2022-08-01T00:07:54;100192.25;;;22.06;60.17
19210;BME280;9738;51.654;14.238;2022-08-01T00:10:20;100185.56;;;22.08;60.01
19210;BME280;9738;51.654;14.238;2022-08-01T00:12:47;100179.66;;;22.11;60.21
19210;BME280;9738;51.654;14.238;2022-08-01T00:15:15;100183.81;;;22.14;60.31
19210;BME280;9738;51.654;14.238;2022-08-01T00:17:42;100177.06;;;22.17;60.37
19210;BME280;9738;51.654;14.238;2022-08-01T00:20:12;100184.16;;;22.18;59.81
19210;BME280;9738;51.654;14.238;2022-08-01T00:22:38;100181.00;;;22.21;60.32
19210;BME280;9738;51.654;14.238;2022-08-01T00:25:04;100181.00;;;22.21;60.02
19210;BME280;9738;51.654;14.238;2022-08-01T00:27:31;100180.75;;;22.22;60.34
19210;BME280;9738;51.654;14.238;2022-08-01T00:29:57;100180.75;;;22.22;60.38
19210;BME280;9738;51.654;14.238;2022-08-01T00:32:23;100186.44;;;22.21;60.06
19210;BME280;9738;51.654;14.238;2022-08-01T00:34:50;100180.38;;;22.19;60.47
19210;BME280;9738;51.654;14.238;2022-08-01T00:37:15;100187.97;;;22.17;60.42
19210;BME280;9738;51.654;14.238;2022-08-01T00:39:41;100178.38;;;22.14;60.70
19210;BME280;9738;51.654;14.238;2022-08-01T00:42:09;100185.09;;;22.11;60.51
19210;BME280;9738;51.654;14.238;2022-08-01T00:44:35;100188.28;;;22.08;60.69
19210;BME280;9738;51.654;14.238;2022-08-01T00:47:01;100193.09;;;22.06;60.75
19210;BME280;9738;51.654;14.238;2022-08-01T00:49:28;100189.41;;;22.01;60.84
19210;BME280;9738;51.654;14.238;2022-08-01T00:51:54;100199.13;;;21.97;61.14
19210;BME280;9738;51.654;14.238;2022-08-01T00:54:20;100198.72;;;21.93;61.55
19210;BME280;9738;51.654;14.238;2022-08-01T00:56:47;100185.84;;;21.89;61.49
19210;BME280;9738;51.654;14.238;2022-08-01T00:59:13;100186.31;;;21.85;61.79
19210;BME280;9738;51.654;14.238;2022-08-01T01:01:39;100187.22;;;21.79;61.91
19210;BME280;9738;51.654;14.238;2022-08-01T01:04:06;100185.81;;;21.77;62.17
19210;BME280;9738;51.654;14.238;2022-08-01T01:06:44;100186.25;;;21.74;62.68
19210;BME280;9738;51.654;14.238;2022-08-01T01:09:26;100182.34;;;21.70;62.76
19210;BME280;9738;51.654;14.238;2022-08-01T01:12:17;100181.16;;;21.66;62.94
19210;BME280;9738;51.654;14.238;2022-08-01T01:15:01;100190.38;;;21.65;63.43
19210;BME280;9738;51.654;14.238;2022-08-01T01:17:38;100179.59;;;21.58;63.36
19210;BME280;9738;51.654;14.238;2022-08-01T01:20:06;100175.91;;;21.52;63.92
19210;BME280;9738;51.654;14.238;2022-08-01T01:22:45;100186.84;;;21.46;64.15
19210;BME280;9738;51.654;14.238;2022-08-01T01:25:32;100185.03;;;21.40;64.55
19210;BME280;9738;51.654;14.238;2022-08-01T01:28:30;100186.56;;;21.36;65.00
19210;BME280;9738;51.654;14.238;2022-08-01T01:30:59;100190.19;;;21.29;65.34
19210;BME280;9738;51.654;14.238;2022-08-01T01:33:27;100190.84;;;21.25;65.55
19210;BME280;9738;51.654;14.238;2022-08-01T01:35:59;100191.28;;;21.22;65.85
19210;BME280;9738;51.654;14.238;2022-08-01T01:38:29;100191.97;;;21.17;66.30
19210;BME280;9738;51.654;14.238;2022-08-01T01:40:57;100190.78;;;21.13;66.46
19210;BME280;9738;51.654;14.238;2022-08-01T01:43:24;100189.56;;;21.09;66.59
19210;BME280;9738;51.654;14.238;2022-08-01T01:45:53;100191.88;;;21.05;67.09
19210;BME280;9738;51.654;14.238;2022-08-01T01:48:20;100188.22;;;21.00;67.17
19210;BME280;9738;51.654;14.238;2022-08-01T01:50:49;100191.59;;;20.95;67.24
19210;BME280;9738;51.654;14.238;2022-08-01T01:53:19;100182.47;;;20.90;67.39
19210;BME280;9738;51.654;14.238;2022-08-01T01:55:48;100182.91;;;20.87;67.83
19210;BME280;9738;51.654;14.238;2022-08-01T01:58:16;100181.94;;;20.81;67.77
19210;BME280;9738;51.654;14.238;2022-08-01T02:00:45;100180.13;;;20.75;68.21
19210;BME280;9738;51.654;14.238;2022-08-01T02:03:12;100174.88;;;20.73;68.28
19210;BME280;9738;51.654;14.238;2022-08-01T02:05:41;100194.13;;;20.72;68.67
19210;BME280;9738;51.654;14.238;2022-08-01T02:08:09;100192.06;;;20.67;68.53
19210;BME280;9738;51.654;14.238;2022-08-01T02:10:36;100195.63;;;20.68;68.99
19210;BME280;9738;51.654;14.238;2022-08-01T02:13:04;100188.97;;;20.64;68.74
19210;BME280;9738;51.654;14.238;2022-08-01T02:15:34;100194.63;;;20.62;69.44
19210;BME280;9738;51.654;14.238;2022-08-01T02:18:05;100199.44;;;20.60;69.58
19210;BME280;9738;51.654;14.238;2022-08-01T02:20:34;100201.56;;;20.58;69.71
19210;BME280;9738;51.654;14.238;2022-08-01T02:23:11;100202.38;;;20.59;70.13
19210;BME280;9738;51.654;14.238;2022-08-01T02:25:52;100198.84;;;20.58;70.32
19210;BME280;9738;51.654;14.238;2022-08-01T02:28:24;100198.00;;;20.58;70.17
19210;BME280;9738;51.654;14.238;2022-08-01T02:30:56;100204.25;;;20.58;70.26
19210;BME280;9738;51.654;14.238;2022-08-01T02:33:33;100200.72;;;20.58;70.21
19210;BME280;9738;51.654;14.238;2022-08-01T02:36:02;100204.66;;;20.62;70.65
19210;BME280;9738;51.654;14.238;2022-08-01T02:38:31;100201.72;;;20.63;70.31
19210;BME280;9738;51.654;14.238;2022-08-01T02:41:00;100201.50;;;20.65;70.35
19210;BME280;9738;51.654;14.238;2022-08-01T02:43:30;100200.44;;;20.66;70.25
19210;BME280;9738;51.654;14.238;2022-08-01T02:46:00;100195.84;;;20.66;70.41
19210;BME280;9738;51.654;14.238;2022-08-01T02:48:27;100197.50;;;20.67;70.26
19210;BME280;9738;51.654;14.238;2022-08-01T02:50:58;100189.16;;;20.69;70.21
19210;BME280;9738;51.654;14.238;2022-08-01T02:53:27;100189.34;;;20.67;69.93
19210;BME280;9738;51.654;14.238;2022-08-01T02:55:57;100188.91;;;20.70;70.63
19210;BME280;9738;51.654;14.238;2022-08-01T02:58:24;100188.91;;;20.70;70.74
19210;BME280;9738;51.654;14.238;2022-08-01T03:00:51;100185.16;;;20.71;70.58
19210;BME280;9738;51.654;14.238;2022-08-01T03:03:19;100186.19;;;20.70;70.45
19210;BME280;9738;51.654;14.238;2022-08-01T03:05:45;100184.78;;;20.68;70.70
19210;BME280;9738;51.654;14.238;2022-08-01T03:08:13;100192.91;;;20.68;70.95
19210;BME280;9738;51.654;14.238;2022-08-01T03:10:42;100192.69;;;20.69;71.13
19210;BME280;9738;51.654;14.238;2022-08-01T03:13:10;100192.47;;;20.71;71.53
19210;BME280;9738;51.654;14.238;2022-08-01T03:15:38;100203.31;;;20.71;71.48
19210;BME280;9738;51.654;14.238;2022-08-01T03:18:08;100199.78;;;20.70;71.44
19210;BME280;9738;51.654;14.238;2022-08-01T03:20:35;100207.50;;;20.67;71.17
19210;BME280;9738;51.654;14.238;2022-08-01T03:23:06;100206.09;;;20.64;71.24
19210;BME280;9738;51.654;14.238;2022-08-01T03:25:35;100203.38;;;20.64;71.39
19210;BME280;9738;51.654;14.238;2022-08-01T03:28:03;100206.75;;;20.60;71.65
19210;BME280;9738;51.654;14.238;2022-08-01T03:30:30;100209.22;;;20.61;71.61
19210;BME280;9738;51.654;14.238;2022-08-01T03:32:58;100205.31;;;20.57;71.13
19210;BME280;9738;51.654;14.238;2022-08-01T03:35:28;100199.91;;;20.57;71.83
19210;BME280;9738;51.654;14.238;2022-08-01T03:37:56;100207.44;;;20.55;71.67
19210;BME280;9738;51.654;14.238;2022-08-01T03:40:43;100206.81;;;20.53;71.75
19210;BME280;9738;51.654;14.238;2022-08-01T03:43:17;100215.78;;;20.54;72.07
19210;BME280;9738;51.654;14.238;2022-08-01T03:45:49;100213.28;;;20.52;71.95
19210;BME280;9738;51.654;14.238;2022-08-01T03:48:17;100216.22;;;20.50;71.99
19210;BME280;9738;51.654;14.238;2022-08-01T03:50:50;100210.81;;;20.50;72.20
19210;BME280;9738;51.654;14.238;2022-08-01T03:53:20;100213.94;;;20.47;72.43
19210;BME280;9738;51.654;14.238;2022-08-01T03:55:49;100212.28;;;20.46;72.42
19210;BME280;9738;51.654;14.238;2022-08-01T03:58:15;100208.31;;;20.49;72.89
19210;BME280;9738;51.654;14.238;2022-08-01T04:00:41;100214.59;;;20.49;72.81
19210;BME280;9738;51.654;14.238;2022-08-01T04:03:09;100220.59;;;20.51;72.92
19210;BME280;9738;51.654;14.238;2022-08-01T04:05:35;100218.94;;;20.50;73.04
19210;BME280;9738;51.654;14.238;2022-08-01T04:08:01;100211.03;;;20.49;73.15
19210;BME280;9738;51.654;14.238;2022-08-01T04:10:29;100215.00;;;20.46;73.21
19210;BME280;9738;51.654;14.238;2022-08-01T04:12:54;100216.50;;;20.42;73.11
19210;BME280;9738;51.654;14.238;2022-08-01T04:15:21;100219.19;;;20.42;73.67
19210;BME280;9738;51.654;14.238;2022-08-01T04:17:47;100219.63;;;20.39;73.76
19210;BME280;9738;51.654;14.238;2022-08-01T04:20:13;100224.22;;;20.39;74.28
19210;BME280;9738;51.654;14.238;2022-08-01T04:22:41;100221.75;;;20.37;73.96
19210;BME280;9738;51.654;14.238;2022-08-01T04:25:23;100225.06;;;20.39;74.83
19210;BME280;9738;51.654;14.238;2022-08-01T04:27:52;100221.28;;;20.40;74.93
19210;BME280;9738;51.654;14.238;2022-08-01T04:30:29;100224.63;;;20.42;75.14
19210;BME280;9738;51.654;14.238;2022-08-01T04:32:59;100231.72;;;20.43;75.35
19210;BME280;9738;51.654;14.238;2022-08-01T04:35:26;100237.13;;;20.43;75.47
19210;BME280;9738;51.654;14.238;2022-08-01T04:37:53;100236.72;;;20.46;75.83
19210;BME280;9738;51.654;14.238;2022-08-01T04:40:20;100230.84;;;20.49;76.36
19210;BME280;9738;51.654;14.238;2022-08-01T04:42:49;100233.50;;;20.56;76.66
19210;BME280;9738;51.654;14.238;2022-08-01T04:45:15;100232.00;;;20.60;76.13
19210;BME280;9738;51.654;14.238;2022-08-01T04:47:42;100233.00;;;20.66;75.06
19210;BME280;9738;51.654;14.238;2022-08-01T04:50:10;100236.47;;;20.73;74.82
19210;BME280;9738;51.654;14.238;2022-08-01T04:52:37;100237.94;;;20.75;74.84
19210;BME280;9738;51.654;14.238;2022-08-01T04:55:04;100232.69;;;20.81;75.81
19210;BME280;9738;51.654;14.238;2022-08-01T04:57:34;100239.53;;;20.83;74.61
19210;BME280;9738;51.654;14.238;2022-08-01T05:00:03;100234.69;;;20.85;74.58
19210;BME280;9738;51.654;14.238;2022-08-01T05:02:29;100237.22;;;20.87;73.88
19210;BME280;9738;51.654;14.238;2022-08-01T05:04:55;100246.31;;;20.92;74.31
19210;BME280;9738;51.654;14.238;2022-08-01T05:07:21;100247.13;;;20.99;74.69
19210;BME280;9738;51.654;14.238;2022-08-01T05:09:47;100243.28;;;21.07;73.89
19210;BME280;9738;51.654;14.238;2022-08-01T05:12:13;100236.94;;;21.13;74.00
19210;BME280;9738;51.654;14.238;2022-08-01T05:14:39;100237.94;;;21.19;73.04
19210;BME280;9738;51.654;14.238;2022-08-01T05:17:07;100243.50;;;21.24;72.99
19210;BME280;9738;51.654;14.238;2022-08-01T05:19:34;100244.94;;;21.26;72.57
19210;BME280;9738;51.654;14.238;2022-08-01T05:22:01;100248.88;;;21.30;73.25
19210;BME280;9738;51.654;14.238;2022-08-01T05:24:30;100243.84;;;21.34;73.52
19210;BME280;9738;51.654;14.238;2022-08-01T05:26:57;100248.81;;;21.37;72.88
19210;BME280;9738;51.654;14.238;2022-08-01T05:29:24;100244.59;;;21.41;73.70
19210;BME280;9738;51.654;14.238;2022-08-01T05:31:50;100245.19;;;21.43;73.31
19210;BME280;9738;51.654;14.238;2022-08-01T05:34:16;100247.00;;;21.49;73.87
19210;BME280;9738;51.654;14.238;2022-08-01T05:36:43;100249.53;;;21.63;74.19
19210;BME280;9738;51.654;14.238;2022-08-01T05:39:09;100245.09;;;21.68;71.84
19210;BME280;9738;51.654;14.238;2022-08-01T05:41:36;100250.91;;;21.72;72.51
19210;BME280;9738;51.654;14.238;2022-08-01T05:44:05;100246.69;;;21.76;73.10
19210;BME280;9738;51.654;14.238;2022-08-01T05:46:31;100250.44;;;21.75;71.96
19210;BME280;9738;51.654;14.238;2022-08-01T05:48:58;100243.09;;;21.75;72.51
19210;BME280;9738;51.654;14.238;2022-08-01T05:51:24;100245.00;;;21.75;72.06
19210;BME280;9738;51.654;14.238;2022-08-01T05:53:51;100241.44;;;21.74;71.37
19210;BME280;9738;51.654;14.238;2022-08-01T05:56:18;100244.56;;;21.78;72.52
19210;BME280;9738;51.654;14.238;2022-08-01T05:58:44;100238.53;;;21.76;72.25
19210;BME280;9738;51.654;14.238;2022-08-01T06:01:10;100243.34;;;21.74;72.10
19210;BME280;9738;51.654;14.238;2022-08-01T06:03:36;100250.66;;;21.73;72.85
19210;BME280;9738;51.654;14.238;2022-08-01T06:06:03;100259.81;;;21.79;73.87
19210;BME280;9738;51.654;14.238;2022-08-01T06:08:28;100251.66;;;21.79;73.14
19210;BME280;9738;51.654;14.238;2022-08-01T06:10:55;100244.56;;;21.78;73.24
19210;BME280;9738;51.654;14.238;2022-08-01T06:13:21;100243.97;;;21.76;73.86
19210;BME280;9738;51.654;14.238;2022-08-01T06:15:47;100245.00;;;21.75;73.90
19210;BME280;9738;51.654;14.238;2022-08-01T06:18:14;100251.34;;;21.69;73.49
19210;BME280;9738;51.654;14.238;2022-08-01T06:20:40;100252.16;;;21.69;74.92
19210;BME280;9738;51.654;14.238;2022-08-01T06:23:06;100259.72;;;21.67;75.00
19210;BME280;9738;51.654;14.238;2022-08-01T06:25:32;100258.91;;;21.67;75.17
19210;BME280;9738;51.654;14.238;2022-08-01T06:27:59;100254.53;;;21.66;75.50
19210;BME280;9738;51.654;14.238;2022-08-01T06:30:25;100258.00;;;21.73;76.22
19210;BME280;9738;51.654;14.238;2022-08-01T06:32:52;100256.94;;;21.74;75.88
19210;BME280;9738;51.654;14.238;2022-08-01T06:35:18;100265.22;;;21.79;75.89
19210;BME280;9738;51.654;14.238;2022-08-01T06:37:43;100269.16;;;21.83;76.14
19210;BME280;9738;51.654;14.238;2022-08-01T06:40:13;100271.09;;;21.94;76.20
19210;BME280;9738;51.654;14.238;2022-08-01T06:42:39;100271.22;;;21.99;75.94
19210;BME280;9738;51.654;14.238;2022-08-01T06:45:06;100274.34;;;22.03;76.13
19210;BME280;9738;51.654;14.238;2022-08-01T06:47:33;100281.88;;;22.01;76.07
19210;BME280;9738;51.654;14.238;2022-08-01T06:49:59;100273.94;;;21.99;76.61
19210;BME280;9738;51.654;14.238;2022-08-01T06:52:25;100281.44;;;22.04;77.43
19210;BME280;9738;51.654;14.238;2022-08-01T06:54:51;100276.56;;;22.06;77.21
19210;BME280;9738;51.654;14.238;2022-08-01T06:57:17;100277.81;;;22.10;77.39
19210;BME280;9738;51.654;14.238;2022-08-01T06:59:43;100275.00;;;22.17;76.86
19210;BME280;9738;51.654;14.238;2022-08-01T07:02:10;100269.91;;;22.20;77.44
19210;BME280;9738;51.654;14.238;2022-08-01T07:04:36;100277.28;;;22.31;77.83
19210;BME280;9738;51.654;14.238;2022-08-01T07:07:02;100282.72;;;22.31;76.78
19210;BME280;9738;51.654;14.238;2022-08-01T07:09:29;100279.78;;;22.33;77.41
19210;BME280;9738;51.654;14.238;2022-08-01T07:11:54;100288.78;;;22.33;77.12
19210;BME280;9738;51.654;14.238;2022-08-01T07:14:21;100278.84;;;22.39;76.43
19210;BME280;9738;51.654;14.238;2022-08-01T07:16:48;100278.41;;;22.42;76.76
19210;BME280;9738;51.654;14.238;2022-08-01T07:19:14;100276.03;;;22.57;76.94
19210;BME280;9738;51.654;14.238;2022-08-01T07:21:40;100282.03;;;22.78;78.17
19210;BME280;9738;51.654;14.238;2022-08-01T07:24:11;100273.88;;;23.01;76.13
19210;BME280;9738;51.654;14.238;2022-08-01T07:26:39;100278.25;;;23.14;74.38
19210;BME280;9738;51.654;14.238;2022-08-01T07:29:05;100270.78;;;23.33;73.94
19210;BME280;9738;51.654;14.238;2022-08-01T07:31:31;100271.59;;;23.45;74.40
19210;BME280;9738;51.654;14.238;2022-08-01T07:33:57;100272.84;;;23.66;74.18
19210;BME280;9738;51.654;14.238;2022-08-01T07:36:23;100278.53;;;23.76;72.73
19210;BME280;9738;51.654;14.238;2022-08-01T07:38:49;100274.03;;;23.70;71.72
19210;BME280;9738;51.654;14.238;2022-08-01T07:41:16;100278.16;;;23.72;72.83
19210;BME280;9738;51.654;14.238;2022-08-01T07:43:41;100275.19;;;23.86;73.58
19210;BME280;9738;51.654;14.238;2022-08-01T07:46:08;100276.69;;;23.93;71.99
19210;BME280;9738;51.654;14.238;2022-08-01T07:48:34;100280.25;;;23.94;69.61
19210;BME280;9738;51.654;14.238;2022-08-01T07:50:59;100275.94;;;23.98;69.85
19210;BME280;9738;51.654;14.238;2022-08-01T07:53:26;100273.28;;;23.86;72.30
19210;BME280;9738;51.654;14.238;2022-08-01T07:55:51;100277.97;;;23.74;70.58
19210;BME280;9738;51.654;14.238;2022-08-01T07:58:17;100286.97;;;23.51;71.87
19210;BME280;9738;51.654;14.238;2022-08-01T08:00:44;100285.22;;;23.33;72.80
19210;BME280;9738;51.654;14.238;2022-08-01T08:03:09;100282.50;;;23.22;73.50
19210;BME280;9738;51.654;14.238;2022-08-01T08:05:35;100277.78;;;23.05;73.71
19210;BME280;9738;51.654;14.238;2022-08-01T08:08:05;100286.31;;;22.97;73.98
19210;BME280;9738;51.654;14.238;2022-08-01T08:10:32;100284.06;;;22.94;73.71
19210;BME280;9738;51.654;14.238;2022-08-01T08:12:58;100281.03;;;22.84;74.66
19210;BME280;9738;51.654;14.238;2022-08-01T08:15:24;100276.22;;;22.86;75.01
19210;BME280;9738;51.654;14.238;2022-08-01T08:17:50;100267.38;;;22.90;74.80
19210;BME280;9738;51.654;14.238;2022-08-01T08:20:16;100273.75;;;22.96;75.93
19210;BME280;9738;51.654;14.238;2022-08-01T08:22:42;100272.34;;;23.05;76.07
19210;BME280;9738;51.654;14.238;2022-08-01T08:25:08;100278.75;;;22.99;75.36
19210;BME280;9738;51.654;14.238;2022-08-01T08:27:35;100281.81;;;22.91;75.71
19210;BME280;9738;51.654;14.238;2022-08-01T08:30:03;100275.00;;;22.82;75.40
19210;BME280;9738;51.654;14.238;2022-08-01T08:32:31;100281.53;;;22.81;76.24
19210;BME280;9738;51.654;14.238;2022-08-01T08:34:56;100283.19;;;22.82;75.51
19210;BME280;9738;51.654;14.238;2022-08-01T08:37:23;100279.31;;;22.89;74.84
19210;BME280;9738;51.654;14.238;2022-08-01T08:39:48;100288.19;;;22.97;74.40
19210;BME280;9738;51.654;14.238;2022-08-01T08:42:14;100284.88;;;23.06;74.23
19210;BME280;9738;51.654;14.238;2022-08-01T08:44:42;100289.38;;;23.24;74.27
19210;BME280;9738;51.654;14.238;2022-08-01T08:47:11;100279.63;;;23.40;73.33
19210;BME280;9738;51.654;14.238;2022-08-01T08:49:38;100279.63;;;23.63;72.31
19210;BME280;9738;51.654;14.238;2022-08-01T08:52:04;100275.94;;;23.98;71.60
19210;BME280;9738;51.654;14.238;2022-08-01T08:54:31;100278.78;;;24.32;69.58
19210;BME280;9738;51.654;14.238;2022-08-01T08:57:01;100284.06;;;24.50;68.92
19210;BME280;9738;51.654;14.238;2022-08-01T08:59:28;100285.84;;;24.61;67.74
19210;BME280;9738;51.654;14.238;2022-08-01T09:01:54;100291.69;;;24.82;67.84
19210;BME280;9738;51.654;14.238;2022-08-01T09:04:23;100288.94;;;24.82;64.84
19210;BME280;9738;51.654;14.238;2022-08-01T09:06:50;100297.53;;;24.73;63.96
19210;BME280;9738;51.654;14.238;2022-08-01T09:09:16;100286.69;;;24.62;64.39
19210;BME280;9738;51.654;14.238;2022-08-01T09:11:41;100294.38;;;24.48;65.14
19210;BME280;9738;51.654;14.238;2022-08-01T09:14:09;100294.44;;;24.36;67.07
19210;BME280;9738;51.654;14.238;2022-08-01T09:16:38;100296.59;;;24.34;68.98
19210;BME280;9738;51.654;14.238;2022-08-01T09:21:40;100304.94;;;24.16;68.73
19210;BME280;9738;51.654;14.238;2022-08-01T09:24:15;100300.50;;;23.98;73.21
19210;BME280;9738;51.654;14.238;2022-08-01T09:26:41;100311.75;;;23.73;75.74
19210;BME280;9738;51.654;14.238;2022-08-01T09:29:08;100320.06;;;23.55;75.41
19210;BME280;9738;51.654;14.238;2022-08-01T09:31:44;100322.66;;;23.38;78.06
19210;BME280;9738;51.654;14.238;2022-08-01T09:34:10;100331.31;;;23.11;81.25
19210;BME280;9738;51.654;14.238;2022-08-01T09:36:49;100338.25;;;22.72;82.84
19210;BME280;9738;51.654;14.238;2022-08-01T09:39:25;100342.19;;;22.46;85.96
19210;BME280;9738;51.654;14.238;2022-08-01T09:41:56;100341.75;;;22.31;91.00
19210;BME280;9738;51.654;14.238;2022-08-01T09:44:38;100342.00;;;22.29;96.57
19210;BME280;9738;51.654;14.238;2022-08-01T09:47:04;100331.94;;;22.30;98.02
19210;BME280;9738;51.654;14.238;2022-08-01T09:49:36;100348.66;;;22.33;100.00
19210;BME280;9738;51.654;14.238;2022-08-01T09:52:23;100340.66;;;22.50;100.00
19210;BME280;9738;51.654;14.238;2022-08-01T09:54:58;100340.44;;;22.63;100.00
19210;BME280;9738;51.654;14.238;2022-08-01T09:57:24;100346.41;;;22.84;100.00
19210;BME280;9738;51.654;14.238;2022-08-01T09:59:56;100338.91;;;22.98;100.00
19210;BME280;9738;51.654;14.238;2022-08-01T10:02:33;100331.31;;;23.11;100.00
19210;BME280;9738;51.654;14.238;2022-08-01T10:05:03;100335.47;;;23.26;99.31
19210;BME280;9738;51.654;14.238;2022-08-01T10:07:29;100327.06;;;23.39;95.93
19210;BME280;9738;51.654;14.238;2022-08-01T10:10:12;100326.78;;;23.52;91.75
19210;BME280;9738;51.654;14.238;2022-08-01T10:12:39;100324.78;;;23.71;91.66
19210;BME280;9738;51.654;14.238;2022-08-01T10:15:06;100326.38;;;23.95;86.47
19210;BME280;9738;51.654;14.238;2022-08-01T10:17:33;100329.81;;;24.31;89.17
19210;BME280;9738;51.654;14.238;2022-08-01T10:20:02;100327.56;;;24.73;84.58
19210;BME280;9738;51.654;14.238;2022-08-01T10:22:30;100320.13;;;25.19;78.63
19210;BME280;9738;51.654;14.238;2022-08-01T10:24:56;100317.22;;;25.43;75.94
19210;BME280;9738;51.654;14.238;2022-08-01T10:27:26;100321.81;;;25.59;70.92
19210;BME280;9738;51.654;14.238;2022-08-01T10:29:58;100321.09;;;25.47;66.02
19210;BME280;9738;51.654;14.238;2022-08-01T10:32:31;100318.34;;;25.08;67.24
19210;BME280;9738;51.654;14.238;2022-08-01T10:34:58;100337.47;;;24.46;73.62
19210;BME280;9738;51.654;14.238;2022-08-01T10:37:24;100344.09;;;23.81;84.34
19210;BME280;9738;51.654;14.238;2022-08-01T10:39:52;100355.38;;;23.38;90.16
19210;BME280;9738;51.654;14.238;2022-08-01T10:42:18;100370.31;;;22.82;91.86
19210;BME280;9738;51.654;14.238;2022-08-01T10:44:45;100378.00;;;22.43;93.46
19210;BME280;9738;51.654;14.238;2022-08-01T10:47:40;100376.69;;;21.97;95.78
19210;BME280;9738;51.654;14.238;2022-08-01T10:53:09;100395.97;;;21.34;100.00
19210;BME280;9738;51.654;14.238;2022-08-01T10:55:50;100398.72;;;21.02;100.00
19210;BME280;9738;51.654;14.238;2022-08-01T10:58:44;100410.97;;;20.80;100.00
19210;BME280;9738;51.654;14.238;2022-08-01T11:03:42;100422.84;;;20.41;100.00
19210;BME280;9738;51.654;14.238;2022-08-01T11:06:17;100417.91;;;20.31;100.00
19210;BME280;9738;51.654;14.238;2022-08-01T11:08:50;100420.22;;;20.21;100.00
19210;BME280;9738;51.654;14.238;2022-08-01T11:11:16;100418.16;;;20.16;100.00
19210;BME280;9738;51.654;14.238;2022-08-01T11:14:02;100425.06;;;20.12;100.00
19210;BME280;9738;51.654;14.238;2022-08-01T11:16:36;100427.16;;;20.10;100.00
19210;BME280;9738;51.654;14.238;2022-08-01T11:19:04;100425.91;;;20.13;100.00
19210;BME280;9738;51.654;14.238;2022-08-01T11:27:22;100423.81;;;20.15;100.00
19210;BME280;9738;51.654;14.238;2022-08-01T11:32:45;100414.66;;;20.03;100.00
19210;BME280;9738;51.654;14.238;2022-08-01T11:35:12;100417.16;;;20.11;100.00
19210;BME280;9738;51.654;14.238;2022-08-01T11:37:38;100413.75;;;20.22;100.00
19210;BME280;9738;51.654;14.238;2022-08-01T11:40:26;100414.59;;;20.22;100.00
19210;BME280;9738;51.654;14.238;2022-08-01T11:43:18;100415.63;;;20.28;100.00
19210;BME280;9738;51.654;14.238;2022-08-01T11:48:25;100413.19;;;20.58;100.00
19210;BME280;9738;51.654;14.238;2022-08-01T11:50:53;100419.16;;;20.73;100.00
19210;BME280;9738;51.654;14.238;2022-08-01T11:53:20;100429.56;;;20.83;100.00
19210;BME280;9738;51.654;14.238;2022-08-01T11:55:51;100427.19;;;20.93;100.00
19210;BME280;9738;51.654;14.238;2022-08-01T11:58:26;100425.38;;;21.12;100.00
19210;BME280;9738;51.654;14.238;2022-08-01T12:00:54;100420.84;;;21.31;100.00
19210;BME280;9738;51.654;14.238;2022-08-01T12:03:28;100420.97;;;21.43;100.00
19210;BME280;9738;51.654;14.238;2022-08-01T12:05:56;100412.50;;;21.57;100.00
19210;BME280;9738;51.654;14.238;2022-08-01T12:08:26;100407.34;;;21.68;100.00
19210;BME280;9738;51.654;14.238;2022-08-01T12:10:53;100414.00;;;21.72;100.00
19210;BME280;9738;51.654;14.238;2022-08-01T12:13:20;100419.53;;;21.83;100.00
19210;BME280;9738;51.654;14.238;2022-08-01T12:15:46;100420.66;;;21.94;100.00
19210;BME280;9738;51.654;14.238;2022-08-01T12:18:12;100428.28;;;22.04;100.00
19210;BME280;9738;51.654;14.238;2022-08-01T12:20:40;100433.75;;;22.04;100.00
19210;BME280;9738;51.654;14.238;2022-08-01T12:23:08;100429.97;;;22.05;100.00
19210;BME280;9738;51.654;14.238;2022-08-01T12:25:35;100421.66;;;22.18;100.00
19210;BME280;9738;51.654;14.238;2022-08-01T12:28:04;100426.50;;;22.34;100.00
19210;BME280;9738;51.654;14.238;2022-08-01T12:30:31;100422.78;;;22.47;100.00
19210;BME280;9738;51.654;14.238;2022-08-01T12:33:01;100419.09;;;22.72;100.00
19210;BME280;9738;51.654;14.238;2022-08-01T12:35:29;100409.94;;;22.96;100.00
19210;BME280;9738;51.654;14.238;2022-08-01T12:38:00;100409.03;;;23.26;100.00
19210;BME280;9738;51.654;14.238;2022-08-01T12:40:29;100407.28;;;23.55;100.00
19210;BME280;9738;51.654;14.238;2022-08-01T12:42:58;100404.09;;;23.69;100.00
19210;BME280;9738;51.654;14.238;2022-08-01T12:45:26;100398.97;;;23.96;100.00
19210;BME280;9738;51.654;14.238;2022-08-01T12:47:53;100390.16;;;24.18;100.00
19210;BME280;9738;51.654;14.238;2022-08-01T12:50:22;100393.16;;;24.33;100.00
19210;BME280;9738;51.654;14.238;2022-08-01T12:52:49;100399.59;;;24.27;100.00
19210;BME280;9738;51.654;14.238;2022-08-01T12:55:22;100404.94;;;24.22;100.00
19210;BME280;9738;51.654;14.238;2022-08-01T12:58:06;100403.06;;;24.11;100.00
19210;BME280;9738;51.654;14.238;2022-08-01T13:00:34;100410.94;;;23.95;100.00
19210;BME280;9738;51.654;14.238;2022-08-01T13:03:20;100417.75;;;23.81;100.00
19210;BME280;9738;51.654;14.238;2022-08-01T13:05:48;100416.22;;;23.73;100.00
19210;BME280;9738;51.654;14.238;2022-08-01T13:08:21;100411.59;;;23.74;100.00
19210;BME280;9738;51.654;14.238;2022-08-01T13:10:48;100412.88;;;23.71;100.00
19210;BME280;9738;51.654;14.238;2022-08-01T13:13:15;100422.25;;;23.76;100.00
19210;BME280;9738;51.654;14.238;2022-08-01T13:15:43;100419.75;;;23.86;100.00